sensor_id;sensor_type;location;lat;lon;timestamp;temperature;humidity
3268;DHT22;1646;52.450;13.326;2023-09-30T00:01:01;18.50;99.90
3268;DHT22;1646;52.450;13.326;2023-09-30T00:06:01;18.30;99.90
3268;DHT22;1646;52.450;13.326;2023-09-30T00:11:00;18.40;99.90
3268;DHT22;1646;52.450;13.326;2023-09-30T00:15:59;18.40;99.90
3268;DHT22;1646;52.450;13.326;2023-09-30T00:20:57;18.40;99.90
3268;DHT22;1646;52.450;13.326;2023-09-30T00:25:57;18.30;99.90
3268;DHT22;1646;52.450;13.326;2023-09-30T00:30:55;18.10;99.90
3268;DHT22;1646;52.450;13.326;2023-09-30T00:35:54;18.00;99.90
3268;DHT22;1646;52.450;13.326;2023-09-30T00:40:52;17.80;99.90
3268;DHT22;1646;52.450;13.326;2023-09-30T00:46:02;17.60;99.90
3268;DHT22;1646;52.450;13.326;2023-09-30T00:51:03;17.50;99.90
3268;DHT22;1646;52.450;13.326;2023-09-30T00:56:02;17.30;99.90
3268;DHT22;1646;52.450;13.326;2023-09-30T01:01:02;17.20;99.90
3268;DHT22;1646;52.450;13.326;2023-09-30T01:06:02;17.10;99.90
3268;DHT22;1646;52.450;13.326;2023-09-30T01:11:01;17.00;99.90
3268;DHT22;1646;52.450;13.326;2023-09-30T01:16:04;16.90;99.90
3268;DHT22;1646;52.450;13.326;2023-09-30T01:21:05;16.90;99.90
3268;DHT22;1646;52.450;13.326;2023-09-30T01:26:06;16.80;99.90
3268;DHT22;1646;52.450;13.326;2023-09-30T01:31:06;16.70;99.90
3268;DHT22;1646;52.450;13.326;2023-09-30T01:36:05;16.60;99.90
3268;DHT22;1646;52.450;13.326;2023-09-30T01:41:06;16.60;99.90
3268;DHT22;1646;52.450;13.326;2023-09-30T01:46:05;16.60;99.90
3268;DHT22;1646;52.450;13.326;2023-09-30T01:51:04;16.50;99.90
3268;DHT22;1646;52.450;13.326;2023-09-30T01:56:03;16.50;99.90
3268;DHT22;1646;52.450;13.326;2023-09-30T02:01:03;16.40;99.90
3268;DHT22;1646;52.450;13.326;2023-09-30T02:06:02;16.40;99.90
3268;DHT22;1646;52.450;13.326;2023-09-30T02:11:01;16.30;99.90
3268;DHT22;1646;52.450;13.326;2023-09-30T02:16:03;16.10;99.90
3268;DHT22;1646;52.450;13.326;2023-09-30T02:21:02;16.00;99.90
3268;DHT22;1646;52.450;13.326;2023-09-30T02:26:01;15.90;99.90
3268;DHT22;1646;52.450;13.326;2023-09-30T02:31:00;15.90;99.90
3268;DHT22;1646;52.450;13.326;2023-09-30T02:35:59;15.90;99.90
3268;DHT22;1646;52.450;13.326;2023-09-30T02:40:58;15.90;99.90
3268;DHT22;1646;52.450;13.326;2023-09-30T02:45:56;15.80;99.90
3268;DHT22;1646;52.450;13.326;2023-09-30T02:50:55;15.80;99.90
3268;DHT22;1646;52.450;13.326;2023-09-30T02:55:54;15.70;99.90
3268;DHT22;1646;52.450;13.326;2023-09-30T03:00:53;15.60;99.90
3268;DHT22;1646;52.450;13.326;2023-09-30T03:05:52;15.60;99.90
3268;DHT22;1646;52.450;13.326;2023-09-30T03:10:51;15.60;99.90
3268;DHT22;1646;52.450;13.326;2023-09-30T03:15:51;15.50;99.90
3268;DHT22;1646;52.450;13.326;2023-09-30T03:20:49;15.40;99.90
3268;DHT22;1646;52.450;13.326;2023-09-30T03:25:51;15.40;99.90
3268;DHT22;1646;52.450;13.326;2023-09-30T03:30:50;15.30;99.90
3268;DHT22;1646;52.450;13.326;2023-09-30T03:35:49;15.30;99.90
3268;DHT22;1646;52.450;13.326;2023-09-30T03:40:48;15.20;99.90
3268;DHT22;1646;52.450;13.326;2023-09-30T03:45:47;15.10;99.90
3268;DHT22;1646;52.450;13.326;2023-09-30T03:50:47;15.10;99.90
3268;DHT22;1646;52.450;13.326;2023-09-30T03:55:46;14.90;99.90
3268;DHT22;1646;52.450;13.326;2023-09-30T04:00:45;14.90;99.90
3268;DHT22;1646;52.450;13.326;2023-09-30T04:05:47;14.90;99.90
3268;DHT22;1646;52.450;13.326;2023-09-30T04:10:47;14.80;99.90
3268;DHT22;1646;52.450;13.326;2023-09-30T04:15:46;14.80;99.90
3268;DHT22;1646;52.450;13.326;2023-09-30T04:20:48;14.80;99.90
3268;DHT22;1646;52.450;13.326;2023-09-30T04:25:46;14.70;99.90
3268;DHT22;1646;52.450;13.326;2023-09-30T04:30:44;14.70;99.90
3268;DHT22;1646;52.450;13.326;2023-09-30T04:35:43;14.70;99.90
3268;DHT22;1646;52.450;13.326;2023-09-30T04:40:43;14.80;99.90
3268;DHT22;1646;52.450;13.326;2023-09-30T04:45:41;14.70;99.90
3268;DHT22;1646;52.450;13.326;2023-09-30T04:50:40;14.70;99.90
3268;DHT22;1646;52.450;13.326;2023-09-30T04:55:38;14.60;99.90
3268;DHT22;1646;52.450;13.326;2023-09-30T05:00:38;14.60;99.90
3268;DHT22;1646;52.450;13.326;2023-09-30T05:05:36;14.60;99.90
3268;DHT22;1646;52.450;13.326;2023-09-30T05:10:34;14.60;99.90
3268;DHT22;1646;52.450;13.326;2023-09-30T05:15:33;14.50;99.90
3268;DHT22;1646;52.450;13.326;2023-09-30T05:20:34;14.50;99.90
3268;DHT22;1646;52.450;13.326;2023-09-30T05:25:33;14.40;99.90
3268;DHT22;1646;52.450;13.326;2023-09-30T05:30:32;14.40;99.90
3268;DHT22;1646;52.450;13.326;2023-09-30T05:35:31;14.30;99.90
3268;DHT22;1646;52.450;13.326;2023-09-30T05:40:31;14.30;99.90
3268;DHT22;1646;52.450;13.326;2023-09-30T05:45:31;14.40;99.90
3268;DHT22;1646;52.450;13.326;2023-09-30T05:50:32;14.50;99.90
3268;DHT22;1646;52.450;13.326;2023-09-30T05:55:32;14.50;99.90
3268;DHT22;1646;52.450;13.326;2023-09-30T06:00:31;14.60;99.90
3268;DHT22;1646;52.450;13.326;2023-09-30T06:05:32;14.60;99.90
3268;DHT22;1646;52.450;13.326;2023-09-30T06:10:32;14.60;99.90
3268;DHT22;1646;52.450;13.326;2023-09-30T06:15:30;14.80;99.90
3268;DHT22;1646;52.450;13.326;2023-09-30T06:20:29;14.90;99.90
3268;DHT22;1646;52.450;13.326;2023-09-30T06:25:28;15.10;99.90
3268;DHT22;1646;52.450;13.326;2023-09-30T06:30:29;15.20;99.90
3268;DHT22;1646;52.450;13.326;2023-09-30T06:35:28;15.00;99.90
3268;DHT22;1646;52.450;13.326;2023-09-30T06:40:31;15.10;99.90
3268;DHT22;1646;52.450;13.326;2023-09-30T06:45:36;15.10;99.90
3268;DHT22;1646;52.450;13.326;2023-09-30T06:50:40;15.10;99.90
3268;DHT22;1646;52.450;13.326;2023-09-30T06:55:41;15.10;99.90
3268;DHT22;1646;52.450;13.326;2023-09-30T07:00:42;15.20;99.90
3268;DHT22;1646;52.450;13.326;2023-09-30T07:05:40;15.20;99.90
3268;DHT22;1646;52.450;13.326;2023-09-30T07:10:38;15.20;99.90
3268;DHT22;1646;52.450;13.326;2023-09-30T07:15:37;15.50;99.90
3268;DHT22;1646;52.450;13.326;2023-09-30T07:20:36;15.60;99.90
3268;DHT22;1646;52.450;13.326;2023-09-30T07:25:35;15.80;99.90
3268;DHT22;1646;52.450;13.326;2023-09-30T07:30:33;15.80;99.90
3268;DHT22;1646;52.450;13.326;2023-09-30T07:35:32;15.70;99.90
3268;DHT22;1646;52.450;13.326;2023-09-30T07:40:32;15.60;99.90
3268;DHT22;1646;52.450;13.326;2023-09-30T07:45:30;15.70;99.90
3268;DHT22;1646;52.450;13.326;2023-09-30T07:50:29;15.80;99.90
3268;DHT22;1646;52.450;13.326;2023-09-30T07:55:27;15.90;99.90
3268;DHT22;1646;52.450;13.326;2023-09-30T08:00:27;16.00;99.90
3268;DHT22;1646;52.450;13.326;2023-09-30T08:05:26;15.90;99.90
3268;DHT22;1646;52.450;13.326;2023-09-30T08:10:25;15.80;99.90
3268;DHT22;1646;52.450;13.326;2023-09-30T08:15:23;15.90;99.90
3268;DHT22;1646;52.450;13.326;2023-09-30T08:20:23;16.20;99.90
3268;DHT22;1646;52.450;13.326;2023-09-30T08:25:22;16.60;99.90
3268;DHT22;1646;52.450;13.326;2023-09-30T08:30:20;16.90;99.90
3268;DHT22;1646;52.450;13.326;2023-09-30T08:35:18;17.10;99.90
3268;DHT22;1646;52.450;13.326;2023-09-30T08:40:22;17.60;99.90
3268;DHT22;1646;52.450;13.326;2023-09-30T08:45:20;17.90;99.90
3268;DHT22;1646;52.450;13.326;2023-09-30T08:50:19;17.90;99.90
3268;DHT22;1646;52.450;13.326;2023-09-30T08:55:17;18.60;99.90
3268;DHT22;1646;52.450;13.326;2023-09-30T09:00:18;18.70;99.90
3268;DHT22;1646;52.450;13.326;2023-09-30T09:05:17;18.50;99.90
3268;DHT22;1646;52.450;13.326;2023-09-30T09:10:16;19.50;99.90
3268;DHT22;1646;52.450;13.326;2023-09-30T09:15:24;21.10;99.90
3268;DHT22;1646;52.450;13.326;2023-09-30T09:20:24;21.90;99.90
3268;DHT22;1646;52.450;13.326;2023-09-30T09:25:23;23.50;99.90
3268;DHT22;1646;52.450;13.326;2023-09-30T09:30:25;25.30;99.90
3268;DHT22;1646;52.450;13.326;2023-09-30T09:35:23;25.30;99.90
3268;DHT22;1646;52.450;13.326;2023-09-30T09:40:27;23.90;99.90
3268;DHT22;1646;52.450;13.326;2023-09-30T09:45:28;24.40;99.90
3268;DHT22;1646;52.450;13.326;2023-09-30T09:50:30;25.60;99.90
3268;DHT22;1646;52.450;13.326;2023-09-30T09:55:29;27.00;99.90
3268;DHT22;1646;52.450;13.326;2023-09-30T10:00:28;26.50;99.90
3268;DHT22;1646;52.450;13.326;2023-09-30T10:05:29;25.80;99.90
3268;DHT22;1646;52.450;13.326;2023-09-30T10:10:28;26.00;99.90
3268;DHT22;1646;52.450;13.326;2023-09-30T10:15:40;24.50;99.90
3268;DHT22;1646;52.450;13.326;2023-09-30T10:20:39;24.10;99.90
3268;DHT22;1646;52.450;13.326;2023-09-30T10:25:38;24.50;99.90
3268;DHT22;1646;52.450;13.326;2023-09-30T10:30:39;27.00;98.70
3268;DHT22;1646;52.450;13.326;2023-09-30T10:35:58;27.90;95.90
3268;DHT22;1646;52.450;13.326;2023-09-30T10:41:00;26.20;96.80
3268;DHT22;1646;52.450;13.326;2023-09-30T10:46:00;24.40;99.30
3268;DHT22;1646;52.450;13.326;2023-09-30T10:50:59;25.10;98.70
3268;DHT22;1646;52.450;13.326;2023-09-30T10:55:59;25.10;97.80
3268;DHT22;1646;52.450;13.326;2023-09-30T11:00:59;25.40;96.90
3268;DHT22;1646;52.450;13.326;2023-09-30T11:05:58;24.10;98.20
3268;DHT22;1646;52.450;13.326;2023-09-30T11:11:08;24.80;98.40
3268;DHT22;1646;52.450;13.326;2023-09-30T11:16:08;24.20;97.20
3268;DHT22;1646;52.450;13.326;2023-09-30T11:21:08;23.00;99.20
3268;DHT22;1646;52.450;13.326;2023-09-30T11:26:07;22.90;99.40
3268;DHT22;1646;52.450;13.326;2023-09-30T11:31:11;22.30;99.90
3268;DHT22;1646;52.450;13.326;2023-09-30T11:36:11;22.20;99.90
3268;DHT22;1646;52.450;13.326;2023-09-30T11:41:19;22.30;99.90
3268;DHT22;1646;52.450;13.326;2023-09-30T11:46:19;21.90;99.90
3268;DHT22;1646;52.450;13.326;2023-09-30T11:51:17;21.70;99.90
3268;DHT22;1646;52.450;13.326;2023-09-30T11:56:16;22.30;99.90
3268;DHT22;1646;52.450;13.326;2023-09-30T12:01:16;23.40;99.90
3268;DHT22;1646;52.450;13.326;2023-09-30T12:06:14;23.00;99.90
3268;DHT22;1646;52.450;13.326;2023-09-30T12:11:13;22.00;99.90
3268;DHT22;1646;52.450;13.326;2023-09-30T12:16:13;22.00;99.90
3268;DHT22;1646;52.450;13.326;2023-09-30T12:21:13;22.40;99.90
3268;DHT22;1646;52.450;13.326;2023-09-30T12:26:14;22.30;99.90
3268;DHT22;1646;52.450;13.326;2023-09-30T12:31:16;22.00;99.90
3268;DHT22;1646;52.450;13.326;2023-09-30T12:36:17;21.90;99.90
3268;DHT22;1646;52.450;13.326;2023-09-30T12:41:15;21.50;99.90
3268;DHT22;1646;52.450;13.326;2023-09-30T12:46:16;21.60;99.90
3268;DHT22;1646;52.450;13.326;2023-09-30T12:51:16;21.50;99.90
3268;DHT22;1646;52.450;13.326;2023-09-30T12:56:15;21.50;99.90
3268;DHT22;1646;52.450;13.326;2023-09-30T13:01:14;21.70;99.90
3268;DHT22;1646;52.450;13.326;2023-09-30T13:06:20;22.00;99.90
3268;DHT22;1646;52.450;13.326;2023-09-30T13:11:18;22.00;99.90
3268;DHT22;1646;52.450;13.326;2023-09-30T13:16:16;21.80;98.30
3268;DHT22;1646;52.450;13.326;2023-09-30T13:21:15;21.60;99.60
3268;DHT22;1646;52.450;13.326;2023-09-30T13:26:15;21.50;99.50
3268;DHT22;1646;52.450;13.326;2023-09-30T13:31:14;21.20;99.90
3268;DHT22;1646;52.450;13.326;2023-09-30T13:36:12;21.20;99.90
3268;DHT22;1646;52.450;13.326;2023-09-30T13:41:11;21.20;99.90
3268;DHT22;1646;52.450;13.326;2023-09-30T13:46:10;21.30;99.90
3268;DHT22;1646;52.450;13.326;2023-09-30T13:51:10;21.40;99.90
3268;DHT22;1646;52.450;13.326;2023-09-30T13:56:08;21.40;99.90
3268;DHT22;1646;52.450;13.326;2023-09-30T14:01:07;21.40;99.90
3268;DHT22;1646;52.450;13.326;2023-09-30T14:06:11;21.30;99.90
3268;DHT22;1646;52.450;13.326;2023-09-30T14:11:10;21.30;99.90
3268;DHT22;1646;52.450;13.326;2023-09-30T14:16:09;21.10;99.90
3268;DHT22;1646;52.450;13.326;2023-09-30T14:21:08;21.20;99.90
3268;DHT22;1646;52.450;13.326;2023-09-30T14:26:08;21.20;98.50
3268;DHT22;1646;52.450;13.326;2023-09-30T14:31:08;21.20;97.60
3268;DHT22;1646;52.450;13.326;2023-09-30T14:36:06;21.30;96.80
3268;DHT22;1646;52.450;13.326;2023-09-30T14:41:08;21.30;97.00
3268;DHT22;1646;52.450;13.326;2023-09-30T14:46:07;21.50;96.60
3268;DHT22;1646;52.450;13.326;2023-09-30T14:51:06;21.80;97.50
3268;DHT22;1646;52.450;13.326;2023-09-30T14:56:16;21.80;96.70
3268;DHT22;1646;52.450;13.326;2023-09-30T15:01:14;21.40;97.50
3268;DHT22;1646;52.450;13.326;2023-09-30T15:06:13;21.50;98.30
3268;DHT22;1646;52.450;13.326;2023-09-30T15:11:16;21.90;98.20
3268;DHT22;1646;52.450;13.326;2023-09-30T15:16:15;22.50;96.60
3268;DHT22;1646;52.450;13.326;2023-09-30T15:21:14;22.80;96.30
3268;DHT22;1646;52.450;13.326;2023-09-30T15:26:12;23.30;96.00
3268;DHT22;1646;52.450;13.326;2023-09-30T15:31:14;23.50;96.10
3268;DHT22;1646;52.450;13.326;2023-09-30T15:36:14;23.90;95.40
3268;DHT22;1646;52.450;13.326;2023-09-30T15:41:15;24.00;95.10
3268;DHT22;1646;52.450;13.326;2023-09-30T15:46:14;24.00;94.70
3268;DHT22;1646;52.450;13.326;2023-09-30T15:51:13;23.60;94.40
3268;DHT22;1646;52.450;13.326;2023-09-30T15:56:12;23.10;95.00
3268;DHT22;1646;52.450;13.326;2023-09-30T16:01:11;22.90;95.20
3268;DHT22;1646;52.450;13.326;2023-09-30T16:06:11;22.30;95.40
3268;DHT22;1646;52.450;13.326;2023-09-30T16:11:10;21.60;96.10
3268;DHT22;1646;52.450;13.326;2023-09-30T16:16:08;21.30;96.70
3268;DHT22;1646;52.450;13.326;2023-09-30T16:21:07;20.90;97.10
3268;DHT22;1646;52.450;13.326;2023-09-30T16:26:06;20.60;97.60
3268;DHT22;1646;52.450;13.326;2023-09-30T16:31:05;20.30;97.80
3268;DHT22;1646;52.450;13.326;2023-09-30T16:36:04;20.00;98.30
3268;DHT22;1646;52.450;13.326;2023-09-30T16:41:03;19.80;98.50
3268;DHT22;1646;52.450;13.326;2023-09-30T16:46:03;19.60;99.90
3268;DHT22;1646;52.450;13.326;2023-09-30T16:51:02;19.50;99.70
3268;DHT22;1646;52.450;13.326;2023-09-30T16:56:02;19.40;99.90
3268;DHT22;1646;52.450;13.326;2023-09-30T17:01:00;19.30;99.90
3268;DHT22;1646;52.450;13.326;2023-09-30T17:06:00;19.10;99.90
3268;DHT22;1646;52.450;13.326;2023-09-30T17:10:59;19.00;99.90
3268;DHT22;1646;52.450;13.326;2023-09-30T17:15:57;18.80;99.90
3268;DHT22;1646;52.450;13.326;2023-09-30T17:20:56;18.70;99.90
3268;DHT22;1646;52.450;13.326;2023-09-30T17:26:00;18.50;99.90
3268;DHT22;1646;52.450;13.326;2023-09-30T17:31:01;18.40;99.90
3268;DHT22;1646;52.450;13.326;2023-09-30T17:36:01;18.30;99.90
3268;DHT22;1646;52.450;13.326;2023-09-30T17:41:02;18.10;99.90
3268;DHT22;1646;52.450;13.326;2023-09-30T17:46:07;18.00;99.90
3268;DHT22;1646;52.450;13.326;2023-09-30T17:51:11;17.90;99.90
3268;DHT22;1646;52.450;13.326;2023-09-30T17:56:17;17.80;99.90
3268;DHT22;1646;52.450;13.326;2023-09-30T18:01:16;17.70;99.90
3268;DHT22;1646;52.450;13.326;2023-09-30T18:06:17;17.60;99.90
3268;DHT22;1646;52.450;13.326;2023-09-30T18:11:17;17.60;99.90
3268;DHT22;1646;52.450;13.326;2023-09-30T18:16:15;17.50;99.90
3268;DHT22;1646;52.450;13.326;2023-09-30T18:21:14;17.40;99.90
3268;DHT22;1646;52.450;13.326;2023-09-30T18:26:13;17.40;99.90
3268;DHT22;1646;52.450;13.326;2023-09-30T18:31:18;17.30;99.90
3268;DHT22;1646;52.450;13.326;2023-09-30T18:36:16;17.30;99.90
3268;DHT22;1646;52.450;13.326;2023-09-30T18:41:16;17.20;99.90
3268;DHT22;1646;52.450;13.326;2023-09-30T18:46:15;17.10;99.90
3268;DHT22;1646;52.450;13.326;2023-09-30T18:51:19;17.10;99.90
3268;DHT22;1646;52.450;13.326;2023-09-30T18:56:21;17.00;99.90
3268;DHT22;1646;52.450;13.326;2023-09-30T19:01:20;17.00;99.90
3268;DHT22;1646;52.450;13.326;2023-09-30T19:06:20;17.00;99.90
3268;DHT22;1646;52.450;13.326;2023-09-30T19:11:18;16.90;99.90
3268;DHT22;1646;52.450;13.326;2023-09-30T19:16:16;16.90;99.90
3268;DHT22;1646;52.450;13.326;2023-09-30T19:21:14;16.80;99.90
3268;DHT22;1646;52.450;13.326;2023-09-30T19:26:14;16.80;99.90
3268;DHT22;1646;52.450;13.326;2023-09-30T19:31:13;16.70;99.90
3268;DHT22;1646;52.450;13.326;2023-09-30T19:36:12;16.60;99.90
3268;DHT22;1646;52.450;13.326;2023-09-30T19:41:16;16.60;99.90
3268;DHT22;1646;52.450;13.326;2023-09-30T19:46:16;16.50;99.90
3268;DHT22;1646;52.450;13.326;2023-09-30T19:51:22;16.30;99.90
3268;DHT22;1646;52.450;13.326;2023-09-30T19:56:22;16.20;99.90
3268;DHT22;1646;52.450;13.326;2023-09-30T20:01:21;16.20;99.90
3268;DHT22;1646;52.450;13.326;2023-09-30T20:06:21;16.10;99.90
3268;DHT22;1646;52.450;13.326;2023-09-30T20:11:22;16.00;99.90
3268;DHT22;1646;52.450;13.326;2023-09-30T20:16:21;16.00;99.90
3268;DHT22;1646;52.450;13.326;2023-09-30T20:21:19;16.00;99.90
3268;DHT22;1646;52.450;13.326;2023-09-30T20:26:19;15.90;99.90
3268;DHT22;1646;52.450;13.326;2023-09-30T20:31:21;15.90;99.90
3268;DHT22;1646;52.450;13.326;2023-09-30T20:36:20;15.80;99.90
3268;DHT22;1646;52.450;13.326;2023-09-30T20:41:19;15.80;99.90
3268;DHT22;1646;52.450;13.326;2023-09-30T20:46:17;15.80;99.90
3268;DHT22;1646;52.450;13.326;2023-09-30T20:51:17;15.90;99.90
3268;DHT22;1646;52.450;13.326;2023-09-30T20:56:16;15.90;99.90
3268;DHT22;1646;52.450;13.326;2023-09-30T21:01:14;15.80;99.90
3268;DHT22;1646;52.450;13.326;2023-09-30T21:06:13;15.80;99.90
3268;DHT22;1646;52.450;13.326;2023-09-30T21:11:13;15.90;99.90
3268;DHT22;1646;52.450;13.326;2023-09-30T21:16:12;15.90;99.90
3268;DHT22;1646;52.450;13.326;2023-09-30T21:21:10;15.80;99.90
3268;DHT22;1646;52.450;13.326;2023-09-30T21:26:14;15.80;99.90
3268;DHT22;1646;52.450;13.326;2023-09-30T21:31:16;15.80;99.90
3268;DHT22;1646;52.450;13.326;2023-09-30T21:36:15;15.80;99.90
3268;DHT22;1646;52.450;13.326;2023-09-30T21:41:17;15.80;99.90
3268;DHT22;1646;52.450;13.326;2023-09-30T21:46:16;15.70;99.90
3268;DHT22;1646;52.450;13.326;2023-09-30T21:51:15;15.70;99.90
3268;DHT22;1646;52.450;13.326;2023-09-30T21:56:13;15.70;99.90
3268;DHT22;1646;52.450;13.326;2023-09-30T22:01:13;15.70;99.90
3268;DHT22;1646;52.450;13.326;2023-09-30T22:06:12;15.70;99.90
3268;DHT22;1646;52.450;13.326;2023-09-30T22:11:11;15.70;99.90
3268;DHT22;1646;52.450;13.326;2023-09-30T22:16:09;15.70;99.90
3268;DHT22;1646;52.450;13.326;2023-09-30T22:21:10;15.70;99.90
3268;DHT22;1646;52.450;13.326;2023-09-30T22:26:08;15.80;99.90
3268;DHT22;1646;52.450;13.326;2023-09-30T22:31:06;15.80;99.90
3268;DHT22;1646;52.450;13.326;2023-09-30T22:36:05;15.80;99.90
3268;DHT22;1646;52.450;13.326;2023-09-30T22:41:05;15.80;99.90
3268;DHT22;1646;52.450;13.326;2023-09-30T22:46:04;15.80;99.90
3268;DHT22;1646;52.450;13.326;2023-09-30T22:51:03;15.70;99.90
3268;DHT22;1646;52.450;13.326;2023-09-30T22:56:01;15.60;99.90
3268;DHT22;1646;52.450;13.326;2023-09-30T23:01:02;15.60;99.90
3268;DHT22;1646;52.450;13.326;2023-09-30T23:06:00;15.60;99.90
3268;DHT22;1646;52.450;13.326;2023-09-30T23:10:58;15.60;99.90
3268;DHT22;1646;52.450;13.326;2023-09-30T23:15:57;15.70;99.90
3268;DHT22;1646;52.450;13.326;2023-09-30T23:20:57;15.80;99.90
3268;DHT22;1646;52.450;13.326;2023-09-30T23:25:57;15.80;99.90
3268;DHT22;1646;52.450;13.326;2023-09-30T23:30:55;15.80;99.90
3268;DHT22;1646;52.450;13.326;2023-09-30T23:35:54;15.80;99.90
3268;DHT22;1646;52.450;13.326;2023-09-30T23:40:54;15.80;99.90
3268;DHT22;1646;52.450;13.326;2023-09-30T23:45:53;15.80;99.90
3268;DHT22;1646;52.450;13.326;2023-09-30T23:50:51;15.90;99.90
3268;DHT22;1646;52.450;13.326;2023-09-30T23:55:50;15.90;99.90
